createdAt,value
2018-09-20T00:02:17.911Z,43.00
2018-09-20T00:04:44.313Z,43.26
2018-09-20T00:07:10.715Z,43.12
2018-09-20T00:09:37.172Z,43.17
2018-09-20T00:12:03.534Z,43.19
2018-09-20T00:14:29.943Z,43.10
2018-09-20T00:16:56.288Z,43.16
2018-09-20T00:19:22.611Z,43.24
2018-09-20T00:21:49.007Z,43.24
2018-09-20T00:24:15.385Z,43.27
2018-09-20T00:26:41.769Z,43.34
2018-09-20T00:29:08.186Z,43.33
2018-09-20T00:31:34.562Z,43.33
2018-09-20T00:34:00.928Z,43.43
2018-09-20T00:36:27.287Z,43.43
2018-09-20T00:38:53.722Z,43.41
2018-09-20T00:41:20.099Z,43.46
2018-09-20T00:43:46.423Z,43.50
2018-09-20T00:46:12.806Z,43.54
2018-09-20T00:48:39.152Z,43.54
2018-09-20T00:51:05.603Z,43.57
2018-09-20T00:53:31.946Z,43.66
2018-09-20T00:55:58.386Z,43.47
2018-09-20T00:58:24.782Z,43.48
2018-09-20T01:00:51.179Z,43.61
2018-09-20T01:03:17.543Z,43.91
2018-09-20T01:05:43.881Z,43.93
2018-09-20T01:08:10.300Z,44.24
2018-09-20T01:10:36.646Z,44.48
2018-09-20T01:13:03.000Z,44.41
2018-09-20T01:15:29.372Z,44.64
2018-09-20T01:17:55.722Z,44.53
2018-09-20T01:20:22.154Z,44.70
2018-09-20T01:22:48.522Z,44.81
2018-09-20T01:25:14.918Z,44.84
2018-09-20T01:27:41.273Z,44.79
2018-09-20T01:30:07.676Z,44.90
2018-09-20T01:32:34.038Z,44.94
2018-09-20T01:35:00.389Z,44.76
2018-09-20T01:37:26.757Z,44.89
2018-09-20T01:39:53.236Z,44.89
2018-09-20T01:42:19.619Z,44.88
2018-09-20T01:44:45.973Z,44.87
2018-09-20T01:47:12.334Z,44.79
2018-09-20T01:49:38.695Z,44.69
2018-09-20T01:52:05.092Z,44.92
2018-09-20T01:54:31.516Z,45.06
2018-09-20T01:56:57.992Z,44.81
2018-09-20T01:59:24.386Z,44.80
2018-09-20T02:01:50.764Z,44.75
2018-09-20T02:04:17.144Z,44.79
2018-09-20T02:06:43.546Z,44.91
2018-09-20T02:09:09.940Z,44.86
2018-09-20T02:11:36.347Z,44.92
2018-09-20T02:14:02.720Z,44.94
2018-09-20T02:16:29.087Z,44.92
2018-09-20T02:18:55.466Z,45.16
2018-09-20T02:21:21.911Z,45.11
2018-09-20T02:23:48.314Z,45.16
2018-09-20T02:26:14.729Z,45.14
2018-09-20T02:28:41.085Z,45.05
2018-09-20T02:31:07.484Z,45.02
2018-09-20T02:33:33.857Z,45.13
2018-09-20T02:36:00.207Z,45.25
2018-09-20T02:38:26.585Z,45.05
2018-09-20T02:40:52.975Z,45.17
2018-09-20T02:43:19.479Z,45.03
2018-09-20T02:45:45.891Z,45.06
2018-09-20T02:48:12.782Z,44.95
2018-09-20T02:50:39.267Z,44.87
2018-09-20T02:53:05.626Z,45.02
2018-09-20T02:55:32.053Z,45.04
2018-09-20T02:57:58.496Z,45.03
2018-09-20T03:00:24.905Z,45.20
2018-09-20T03:02:51.234Z,45.22
2018-09-20T03:05:17.590Z,45.14
2018-09-20T03:07:44.026Z,45.09
2018-09-20T03:10:10.506Z,44.95
2018-09-20T03:12:36.906Z,44.85
2018-09-20T03:15:03.383Z,44.68
2018-09-20T03:17:29.778Z,44.49
2018-09-20T03:19:56.162Z,44.47
2018-09-20T03:22:22.528Z,44.43
2018-09-20T03:24:48.917Z,44.37
2018-09-20T03:27:15.290Z,44.41
2018-09-20T03:29:41.830Z,44.35
2018-09-20T03:32:08.293Z,44.19
2018-09-20T03:34:34.684Z,44.22
2018-09-20T03:37:01.045Z,44.10
2018-09-20T03:39:27.414Z,44.09
2018-09-20T03:41:53.779Z,43.99
2018-09-20T03:44:20.168Z,43.97
2018-09-20T03:46:46.568Z,43.88
2018-09-20T03:49:12.909Z,43.96
2018-09-20T03:51:39.341Z,43.81
2018-09-20T03:54:05.818Z,43.85
2018-09-20T03:56:32.207Z,43.89
2018-09-20T03:58:58.881Z,43.85
2018-09-20T04:01:25.416Z,43.84
2018-09-20T04:03:51.817Z,43.73
2018-09-20T04:06:18.206Z,43.67
2018-09-20T04:08:44.569Z,43.69
2018-09-20T04:11:10.976Z,43.61
2018-09-20T04:13:37.343Z,43.66
2018-09-20T04:16:03.737Z,43.62
2018-09-20T04:18:30.099Z,43.60
2018-09-20T04:20:56.459Z,43.60
2018-09-20T04:23:22.841Z,43.57
2018-09-20T04:25:49.221Z,43.55
2018-09-20T04:28:15.622Z,43.51
2018-09-20T04:30:42.031Z,43.43
2018-09-20T04:33:08.383Z,43.40
2018-09-20T04:35:34.711Z,43.34
2018-09-20T04:38:01.113Z,43.24
2018-09-20T04:40:27.620Z,43.25
2018-09-20T04:42:53.977Z,43.15
2018-09-20T04:45:20.519Z,42.95
2018-09-20T04:47:46.868Z,43.06
2018-09-20T04:50:13.327Z,43.00
2018-09-20T04:52:39.755Z,42.97
2018-09-20T04:55:06.161Z,42.86
2018-09-20T04:57:32.686Z,42.75
2018-09-20T04:59:59.177Z,42.81
2018-09-20T05:02:25.442Z,42.67
2018-09-20T05:04:51.919Z,42.75
2018-09-20T05:07:18.415Z,42.64
2018-09-20T05:09:44.843Z,42.64
2018-09-20T05:12:11.217Z,42.69
2018-09-20T05:14:37.592Z,42.68
2018-09-20T05:17:04.157Z,42.66
2018-09-20T05:19:30.575Z,42.51
2018-09-20T05:21:56.947Z,42.64
2018-09-20T05:24:23.385Z,42.57
2018-09-20T05:26:49.766Z,42.66
2018-09-20T05:29:16.117Z,42.56
2018-09-20T05:31:42.526Z,42.56
2018-09-20T05:34:08.933Z,42.58
2018-09-20T05:36:35.305Z,42.55
2018-09-20T05:39:01.698Z,42.51
2018-09-20T05:41:28.082Z,42.50
2018-09-20T05:43:54.458Z,42.61
2018-09-20T05:46:20.876Z,42.54
2018-09-20T05:48:47.243Z,42.42
2018-09-20T05:51:13.605Z,42.44
2018-09-20T05:53:40.107Z,42.33
2018-09-20T05:56:06.552Z,42.38
2018-09-20T05:58:32.976Z,42.36
2018-09-20T06:00:59.373Z,42.34
2018-09-20T06:03:25.776Z,42.37
2018-09-20T06:05:52.141Z,42.27
2018-09-20T06:08:18.534Z,42.21
2018-09-20T06:10:44.920Z,42.03
2018-09-20T06:13:11.349Z,42.13
2018-09-20T06:15:37.761Z,42.03
2018-09-20T06:18:04.166Z,42.01
2018-09-20T06:20:30.564Z,41.90
2018-09-20T06:22:56.928Z,41.87
2018-09-20T06:25:23.387Z,41.84
2018-09-20T06:27:49.748Z,41.82
2018-09-20T06:30:16.157Z,41.73
2018-09-20T06:32:42.525Z,41.58
2018-09-20T06:35:08.974Z,41.49
2018-09-20T06:37:35.397Z,41.50
2018-09-20T06:40:01.783Z,41.36
2018-09-20T06:42:28.163Z,41.33
2018-09-20T06:44:54.620Z,41.36
2018-09-20T06:47:21.012Z,41.28
2018-09-20T06:49:47.435Z,41.45
2018-09-20T06:52:13.884Z,41.33
2018-09-20T06:54:40.253Z,41.26
2018-09-20T06:57:06.646Z,41.18
2018-09-20T06:59:33.090Z,41.36
2018-09-20T07:01:59.515Z,41.27
2018-09-20T07:04:25.941Z,41.27
2018-09-20T07:06:52.375Z,41.38
2018-09-20T07:09:18.808Z,41.28
2018-09-20T07:11:45.241Z,41.18
2018-09-20T07:14:11.621Z,41.20
2018-09-20T07:16:38.124Z,41.29
2018-09-20T07:19:04.536Z,41.16
2018-09-20T07:21:31.001Z,41.20
2018-09-20T07:23:57.403Z,41.07
2018-09-20T07:26:23.833Z,41.05
2018-09-20T07:28:50.209Z,40.93
2018-09-20T07:31:16.617Z,40.99
2018-09-20T07:33:43.056Z,40.98
2018-09-20T07:36:09.522Z,41.01
2018-09-20T07:38:36.083Z,40.90
2018-09-20T07:41:02.460Z,40.78
2018-09-20T07:43:28.843Z,40.79
2018-09-20T07:45:55.326Z,40.71
2018-09-20T07:48:21.731Z,40.74
2018-09-20T07:50:48.174Z,40.73
2018-09-20T07:53:15.136Z,40.70
2018-09-20T07:55:42.068Z,40.73
2018-09-20T07:58:08.447Z,40.64
2018-09-20T08:00:34.838Z,40.58
2018-09-20T08:03:02.251Z,40.63
2018-09-20T08:08:03.573Z,40.38
2018-09-20T08:10:29.995Z,40.44
2018-09-20T08:12:58.274Z,40.49
2018-09-20T08:16:19.122Z,40.50
2018-09-20T08:18:46.020Z,40.37
2018-09-20T08:21:12.706Z,40.26
2018-09-20T08:23:39.297Z,40.31
2018-09-20T08:26:05.715Z,40.31
2018-09-20T08:28:32.165Z,40.31
2018-09-20T08:30:58.531Z,40.42
2018-09-20T08:36:05.630Z,40.32
2018-09-20T08:38:33.762Z,40.46
2018-09-20T08:41:00.157Z,40.48
2018-09-20T08:46:01.164Z,40.49
2018-09-20T08:48:28.525Z,40.45
2018-09-20T08:53:27.508Z,40.52
2018-09-20T08:55:53.945Z,40.51
2018-09-20T08:58:20.321Z,40.50
2018-09-20T09:00:46.704Z,40.73
2018-09-20T09:03:13.104Z,40.67
2018-09-20T09:05:39.694Z,40.60
2018-09-20T09:08:06.168Z,40.61
2018-09-20T09:13:08.348Z,40.61
2018-09-20T09:15:34.724Z,40.54
2018-09-20T09:18:01.130Z,40.60
2018-09-20T09:20:27.594Z,40.85
2018-09-20T09:22:53.974Z,40.61
2018-09-20T09:25:20.414Z,40.70
2018-09-20T09:27:46.865Z,40.55
2018-09-20T09:30:13.250Z,40.67
2018-09-20T09:32:39.643Z,40.56
2018-09-20T09:35:06.106Z,40.58
2018-09-20T09:37:32.598Z,40.36
2018-09-20T09:39:58.996Z,40.31
2018-09-20T09:42:25.375Z,40.29
2018-09-20T09:44:51.790Z,40.38
2018-09-20T09:47:18.206Z,40.06
2018-09-20T09:49:44.553Z,39.96
2018-09-20T09:52:11.059Z,40.03
2018-09-20T09:54:37.848Z,39.94
2018-09-20T09:57:04.295Z,39.79
2018-09-20T09:59:31.724Z,40.02
2018-09-20T10:01:58.074Z,39.80
2018-09-20T10:04:24.442Z,39.78
2018-09-20T10:06:50.830Z,39.83
2018-09-20T10:09:17.245Z,39.91
2018-09-20T10:11:43.637Z,40.03
2018-09-20T10:14:10.169Z,39.69
2018-09-20T10:16:36.552Z,39.78
2018-09-20T10:19:02.957Z,39.93
2018-09-20T10:21:30.482Z,39.70
2018-09-20T10:23:57.074Z,39.74
2018-09-20T10:26:23.500Z,39.32
2018-09-20T10:28:50.073Z,39.18
2018-09-20T10:31:16.489Z,39.22
2018-09-20T10:33:42.975Z,39.30
2018-09-20T10:36:09.404Z,39.00
2018-09-20T10:38:35.911Z,38.98
2018-09-20T10:41:02.609Z,38.68
2018-09-20T10:43:29.113Z,38.95
2018-09-20T10:45:55.621Z,38.48
2018-09-20T10:48:25.117Z,38.68
2018-09-20T10:50:51.686Z,38.51
2018-09-20T10:53:20.239Z,38.64
2018-09-20T10:55:46.710Z,38.61
2018-09-20T10:58:13.104Z,38.84
2018-09-20T11:00:41.204Z,38.84
2018-09-20T11:03:07.802Z,38.73
2018-09-20T11:05:38.319Z,38.74
2018-09-20T11:08:04.750Z,38.77
2018-09-20T11:10:31.273Z,38.71
2018-09-20T11:12:57.730Z,38.67
2018-09-20T11:15:25.506Z,39.03
2018-09-20T11:17:51.924Z,38.90
2018-09-20T11:20:18.296Z,38.94
2018-09-20T11:22:44.676Z,38.82
2018-09-20T11:25:11.090Z,38.99
2018-09-20T11:27:37.572Z,38.94
2018-09-20T11:30:03.962Z,38.93
2018-09-20T11:32:31.800Z,38.86
2018-09-20T11:37:30.575Z,38.99
2018-09-20T11:39:56.954Z,38.94
2018-09-20T11:42:23.387Z,39.01
2018-09-20T11:44:49.734Z,38.82
2018-09-20T11:47:16.138Z,38.99
2018-09-20T11:49:42.565Z,38.84
2018-09-20T11:52:08.917Z,39.25
2018-09-20T11:54:35.349Z,38.80
2018-09-20T11:57:01.719Z,38.98
2018-09-20T11:59:28.115Z,38.92
2018-09-20T12:01:54.620Z,39.20
2018-09-20T12:04:21.054Z,39.29
2018-09-20T12:06:47.464Z,39.04
2018-09-20T12:09:13.817Z,39.26
2018-09-20T12:11:40.248Z,39.44
2018-09-20T12:14:06.607Z,39.42
2018-09-20T12:16:32.995Z,39.25
2018-09-20T12:18:59.358Z,39.30
2018-09-20T12:21:25.735Z,39.43
2018-09-20T12:23:52.200Z,39.52
2018-09-20T12:26:18.633Z,39.36
2018-09-20T12:28:45.027Z,39.35
2018-09-20T12:31:11.424Z,39.29
2018-09-20T12:33:37.800Z,39.18
2018-09-20T12:36:04.252Z,39.12
2018-09-20T12:38:30.703Z,39.20
2018-09-20T12:40:57.086Z,39.00
2018-09-20T12:43:23.500Z,39.05
2018-09-20T12:45:50.153Z,39.04
2018-09-20T12:48:16.561Z,39.00
2018-09-20T12:50:42.942Z,38.85
2018-09-20T12:53:09.812Z,38.86
2018-09-20T12:55:36.347Z,38.97
2018-09-20T12:58:02.726Z,38.82
2018-09-20T13:00:29.315Z,38.75
2018-09-20T13:02:55.797Z,38.67
2018-09-20T13:05:22.286Z,38.62
2018-09-20T13:07:48.715Z,38.45
2018-09-20T13:10:15.145Z,38.11
2018-09-20T13:12:41.607Z,38.26
2018-09-20T13:15:08.354Z,38.19
2018-09-20T13:20:08.281Z,38.18
2018-09-20T13:22:34.589Z,38.09
2018-09-20T13:25:00.938Z,37.92
2018-09-20T13:27:27.345Z,38.17
2018-09-20T13:29:53.739Z,37.90
2018-09-20T13:32:20.100Z,37.83
2018-09-20T13:34:46.513Z,37.86
2018-09-20T13:37:13.025Z,37.84
2018-09-20T13:39:39.330Z,37.65
2018-09-20T13:42:05.734Z,38.02
2018-09-20T13:44:32.205Z,37.71
2018-09-20T13:54:39.675Z,37.92
2018-09-20T13:57:06.083Z,38.12
2018-09-20T14:02:06.592Z,38.23
2018-09-20T14:04:32.982Z,38.31
2018-09-20T14:06:59.383Z,38.30
2018-09-20T14:09:25.816Z,38.28
2018-09-20T14:11:52.214Z,38.43
2018-09-20T14:14:18.565Z,38.34
2018-09-20T14:16:44.961Z,38.43
2018-09-20T14:19:11.368Z,38.51
2018-09-20T14:21:37.738Z,38.55
2018-09-20T14:24:04.178Z,38.59
2018-09-20T14:26:30.547Z,38.43
2018-09-20T14:28:56.930Z,38.62
2018-09-20T14:31:23.304Z,38.48
2018-09-20T14:33:49.659Z,38.51
2018-09-20T14:36:16.031Z,38.52
2018-09-20T14:38:42.400Z,38.65
2018-09-20T14:41:08.797Z,38.47
2018-09-20T14:43:35.265Z,38.47
2018-09-20T14:46:01.689Z,38.46
2018-09-20T14:48:28.097Z,38.32
2018-09-20T14:50:54.467Z,38.46
2018-09-20T14:53:20.895Z,38.45
2018-09-20T14:55:47.290Z,38.47
2018-09-20T14:58:13.684Z,38.15
2018-09-20T15:00:40.090Z,38.31
2018-09-20T15:03:06.439Z,38.30
2018-09-20T15:05:32.789Z,38.21
2018-09-20T15:07:59.190Z,38.33
2018-09-20T15:10:25.558Z,38.36
2018-09-20T15:12:51.928Z,38.33
2018-09-20T15:15:18.457Z,38.34
2018-09-20T15:17:45.628Z,38.31
2018-09-20T15:20:12.033Z,38.24
2018-09-20T15:22:38.466Z,38.28
2018-09-20T15:25:04.829Z,38.26
2018-09-20T15:27:31.183Z,38.21
2018-09-20T15:29:57.615Z,38.20
2018-09-20T15:32:24.076Z,38.22
2018-09-20T15:34:50.427Z,38.24
2018-09-20T15:37:16.894Z,38.30
2018-09-20T15:39:43.332Z,38.26
2018-09-20T15:42:09.709Z,38.20
2018-09-20T15:44:36.089Z,38.28
2018-09-20T15:47:02.453Z,38.21
2018-09-20T15:49:28.807Z,38.17
2018-09-20T15:51:55.199Z,38.11
2018-09-20T15:54:21.564Z,38.05
2018-09-20T15:56:47.993Z,38.09
2018-09-20T15:59:14.398Z,38.02
2018-09-20T16:01:40.732Z,38.01
2018-09-20T16:04:07.136Z,38.12
2018-09-20T16:06:33.552Z,38.16
2018-09-20T16:08:59.896Z,38.08
2018-09-20T16:11:26.257Z,38.09
2018-09-20T16:13:52.668Z,38.06
2018-09-20T16:16:19.059Z,38.04
2018-09-20T16:18:45.386Z,38.08
2018-09-20T16:21:11.779Z,37.98
2018-09-20T16:23:38.197Z,38.00
2018-09-20T16:26:04.534Z,38.13
2018-09-20T16:28:30.879Z,38.06
2018-09-20T16:30:57.236Z,38.05
2018-09-20T16:33:23.596Z,38.09
2018-09-20T16:35:49.977Z,38.17
2018-09-20T16:38:16.510Z,38.11
2018-09-20T16:40:42.872Z,38.06
2018-09-20T16:43:09.323Z,38.15
2018-09-20T16:45:35.705Z,38.10
2018-09-20T16:48:02.129Z,38.15
2018-09-20T16:50:28.540Z,38.18
2018-09-20T16:52:54.951Z,38.19
2018-09-20T16:55:21.341Z,38.14
2018-09-20T16:57:47.695Z,38.15
2018-09-20T17:00:14.047Z,38.17
2018-09-20T17:02:40.431Z,38.10
2018-09-20T17:05:06.895Z,38.15
2018-09-20T17:07:33.232Z,38.11
2018-09-20T17:09:59.591Z,38.22
2018-09-20T17:12:25.960Z,38.32
2018-09-20T17:14:52.344Z,38.53
2018-09-20T17:17:18.746Z,38.58
2018-09-20T17:19:45.125Z,38.66
2018-09-20T17:22:11.506Z,38.78
2018-09-20T17:24:37.883Z,38.81
2018-09-20T17:27:04.349Z,38.78
2018-09-20T17:29:30.754Z,38.81
2018-09-20T17:31:57.109Z,38.80
2018-09-20T17:34:24.178Z,38.82
2018-09-20T17:36:50.528Z,38.84
2018-09-20T17:39:16.987Z,38.87
2018-09-20T17:41:43.456Z,38.89
2018-09-20T17:44:09.866Z,38.93
2018-09-20T17:46:36.210Z,38.95
2018-09-20T17:49:02.647Z,38.88
2018-09-20T17:51:28.997Z,38.90
2018-09-20T17:53:55.369Z,38.71
2018-09-20T17:56:21.775Z,38.62
2018-09-20T17:58:48.126Z,38.82
2018-09-20T18:01:14.479Z,38.95
2018-09-20T18:03:40.910Z,38.91
2018-09-20T18:06:07.328Z,38.85
2018-09-20T18:08:33.736Z,38.94
2018-09-20T18:11:00.068Z,38.87
2018-09-20T18:13:26.573Z,38.75
2018-09-20T18:15:52.972Z,38.78
2018-09-20T18:18:19.448Z,38.81
2018-09-20T18:20:45.720Z,38.75
2018-09-20T18:23:12.103Z,38.82
2018-09-20T18:25:38.433Z,38.82
2018-09-20T18:30:37.262Z,38.86
2018-09-20T18:33:03.623Z,38.86
2018-09-20T18:35:30.022Z,38.90
2018-09-20T18:37:56.368Z,38.92
2018-09-20T18:40:22.783Z,38.96
2018-09-20T18:42:49.124Z,38.97
2018-09-20T18:45:15.463Z,39.00
2018-09-20T18:47:41.837Z,38.96
2018-09-20T18:50:08.235Z,38.83
2018-09-20T18:52:34.550Z,38.90
2018-09-20T18:55:01.059Z,38.93
2018-09-20T18:57:27.456Z,38.91
2018-09-20T18:59:53.845Z,38.95
2018-09-20T19:02:20.215Z,38.90
2018-09-20T19:04:46.600Z,38.84
2018-09-20T19:07:12.968Z,38.84
2018-09-20T19:09:39.451Z,38.82
2018-09-20T19:12:05.839Z,38.80
2018-09-20T19:14:32.210Z,38.68
2018-09-20T19:16:58.548Z,38.68
2018-09-20T19:19:24.885Z,38.79
2018-09-20T19:21:51.274Z,38.69
2018-09-20T19:24:17.638Z,38.86
2018-09-20T19:26:44.121Z,38.83
2018-09-20T19:29:10.503Z,38.82
2018-09-20T19:31:36.873Z,38.76
2018-09-20T19:34:03.258Z,38.76
2018-09-20T19:36:29.610Z,38.80
2018-09-20T19:38:56.094Z,38.79
2018-09-20T19:46:25.855Z,38.76
2018-09-20T19:48:52.199Z,38.77
2018-09-20T19:51:18.641Z,38.76
2018-09-20T19:53:45.008Z,38.79
2018-09-20T19:56:11.406Z,38.74
2018-09-20T19:58:37.770Z,38.69
2018-09-20T20:01:04.239Z,38.69
2018-09-20T20:03:30.626Z,38.62
2018-09-20T20:05:56.961Z,38.56
2018-09-20T20:08:23.474Z,38.58
2018-09-20T20:10:49.813Z,38.53
2018-09-20T20:13:16.294Z,38.47
2018-09-20T20:15:42.640Z,38.42
2018-09-20T20:18:09.003Z,38.40
2018-09-20T20:20:35.404Z,38.42
2018-09-20T20:23:01.766Z,38.40
2018-09-20T20:25:28.131Z,38.46
2018-09-20T20:27:54.451Z,38.37
2018-09-20T20:30:20.954Z,38.32
2018-09-20T20:32:47.285Z,38.35
2018-09-20T20:35:13.630Z,38.32
2018-09-20T20:37:39.982Z,38.28
2018-09-20T20:40:06.341Z,38.28
2018-09-20T20:42:32.711Z,38.32
2018-09-20T20:44:59.093Z,38.26
2018-09-20T20:47:25.448Z,38.22
2018-09-20T20:49:51.774Z,38.18
2018-09-20T20:52:18.141Z,38.16
2018-09-20T20:54:44.506Z,38.03
2018-09-20T20:57:10.875Z,38.15
2018-09-20T20:59:37.250Z,38.32
2018-09-20T21:02:03.633Z,38.17
2018-09-20T21:04:29.958Z,38.20
2018-09-20T21:06:56.323Z,38.11
2018-09-20T21:09:22.675Z,37.92
2018-09-20T21:11:49.035Z,38.16
2018-09-20T21:14:15.426Z,38.13
2018-09-20T21:16:42.062Z,37.83
2018-09-20T21:19:08.378Z,38.11
2018-09-20T21:21:34.765Z,38.15
2018-09-20T21:24:01.223Z,38.07
2018-09-20T21:26:27.588Z,38.04
2018-09-20T21:28:53.917Z,38.08
2018-09-20T21:31:20.269Z,37.97
2018-09-20T21:33:46.700Z,38.14
2018-09-20T21:36:13.046Z,37.93
2018-09-20T21:38:39.375Z,37.99
2018-09-20T21:41:05.784Z,38.09
2018-09-20T21:43:32.223Z,38.12
2018-09-20T21:45:58.693Z,38.10
2018-09-20T21:48:25.076Z,38.02
2018-09-20T21:50:51.428Z,38.08
2018-09-20T21:53:17.765Z,37.86
2018-09-20T21:55:44.241Z,38.05
2018-09-20T21:58:10.585Z,38.14
2018-09-20T22:00:36.971Z,37.79
2018-09-20T22:03:03.305Z,38.06
2018-09-20T22:05:29.723Z,38.01
2018-09-20T22:07:56.138Z,38.06
2018-09-20T22:10:22.509Z,38.12
2018-09-20T22:12:48.860Z,37.99
2018-09-20T22:15:15.257Z,37.87
2018-09-20T22:17:41.589Z,38.14
2018-09-20T22:20:08.059Z,38.14
2018-09-20T22:22:34.733Z,38.12
2018-09-20T22:25:01.086Z,38.19
2018-09-20T22:27:27.437Z,38.12
2018-09-20T22:29:53.956Z,38.00
2018-09-20T22:32:20.479Z,38.18
2018-09-20T22:34:47.015Z,38.33
2018-09-20T22:37:13.429Z,38.36
2018-09-20T22:39:39.765Z,38.28
2018-09-20T22:42:06.130Z,38.44
2018-09-20T22:44:32.637Z,38.30
2018-09-20T22:46:59.170Z,38.53
2018-09-20T22:49:25.502Z,38.45
2018-09-20T22:51:51.832Z,38.52
2018-09-20T22:54:18.181Z,38.44
2018-09-20T22:56:44.596Z,38.62
2018-09-20T22:59:10.971Z,38.53
2018-09-20T23:01:37.331Z,38.66
2018-09-20T23:04:03.733Z,38.71
2018-09-20T23:06:30.351Z,38.69
2018-09-20T23:08:56.746Z,38.81
2018-09-20T23:11:23.116Z,38.76
2018-09-20T23:13:49.505Z,38.75
2018-09-20T23:16:15.897Z,38.94
2018-09-20T23:18:42.296Z,38.92
2018-09-20T23:21:08.665Z,38.90
2018-09-20T23:23:35.118Z,39.01
2018-09-20T23:26:01.489Z,38.98
2018-09-20T23:28:27.820Z,39.10
2018-09-20T23:30:54.200Z,39.08
2018-09-20T23:33:20.609Z,39.21
2018-09-20T23:35:46.953Z,39.14
2018-09-20T23:38:13.312Z,39.27
2018-09-20T23:40:39.688Z,39.25
2018-09-20T23:43:06.028Z,39.33
2018-09-20T23:45:32.360Z,39.36
2018-09-20T23:47:58.762Z,39.41
2018-09-20T23:50:25.128Z,39.46
2018-09-20T23:52:51.636Z,39.47
2018-09-20T23:55:18.142Z,39.54
2018-09-20T23:57:44.547Z,39.60
